Time;durP1;ratioP1;P1;durP2;ratioP2;P2;SDS_P1;SDS_P2;PMS_P1;PMS_P2;Temp;Humidity;BMP_temperature;BMP_pressure;BME280_temperature;BME280_humidity;BME280_pressure;Samples;Min_cycle;Max_cycle;Signal;HPM_P1;HPM_P2
2024/02/19 00:00:05;;;;;;;;;;;;;;;19.32;49.37;101071.47;2068365;28;6259;-69
2024/02/19 00:01:06;;;;;;;;;;;;;;;19.32;49.37;101077.97;2068413;28;2020;-69
2024/02/19 00:02:08;;;;;;;;;;;;;;;19.32;49.51;101074.34;2071501;28;1629;-68
2024/02/19 00:03:10;;;;;;;;;;;;;;;19.32;49.43;101068.63;2069970;28;1697;-69
2024/02/19 00:04:11;;;;;;;;;;;;;;;19.33;49.43;101070.09;2066773;28;2258;-68
2024/02/19 00:05:13;;;;;;;;;;;;;;;19.33;49.43;101070.09;2067007;28;2211;-69
2024/02/19 00:06:14;;;;;;;;;;;;;;;19.32;49.45;101074.34;2070572;28;1798;-69
2024/02/19 00:07:17;;;;;;;;;;;;;;;19.32;49.32;101065.75;2069406;28;1621;-69
2024/02/19 00:08:19;;;;;;;;;;;;;;;19.31;49.40;101065.00;2068396;28;1648;-69
2024/02/19 00:09:21;;;;;;;;;;;;;;;19.31;49.42;101055.63;2069181;28;2295;-68
2024/02/19 00:10:22;;;;;;;;;;;;;;;19.31;49.48;101062.13;2070318;28;2172;-69
2024/02/19 00:11:24;;;;;;;;;;;;;;;19.31;49.41;101061.38;2068211;28;1943;-68
2024/02/19 00:12:25;;;;;;;;;;;;;;;19.31;49.38;101072.84;2065597;28;1644;-68
2024/02/19 00:13:26;;;;;;;;;;;;;;;19.30;49.40;101060.63;2067727;28;1707;-69
2024/02/19 00:14:28;;;;;;;;;;;;;;;19.30;49.27;101060.63;2069989;28;1613;-68
2024/02/19 00:15:29;;;;;;;;;;;;;;;19.30;49.36;101054.16;2066688;28;1680;-69
2024/02/19 00:16:31;;;;;;;;;;;;;;;19.30;49.42;101059.88;2065259;28;1762;-69
2024/02/19 00:17:32;;;;;;;;;;;;;;;19.29;49.33;101047.66;2065903;28;1879;-68
2024/02/19 00:18:33;;;;;;;;;;;;;;;19.30;49.34;101054.16;2070467;28;1712;-68
2024/02/19 00:19:35;;;;;;;;;;;;;;;19.30;49.36;101054.16;2069548;28;1684;-68
2024/02/19 00:20:37;;;;;;;;;;;;;;;19.29;49.32;101049.75;2067950;28;2193;-68
2024/02/19 00:21:38;;;;;;;;;;;;;;;19.29;49.35;101052.63;2067971;28;1684;-68
2024/02/19 00:22:40;;;;;;;;;;;;;;;19.29;49.41;101052.63;2069170;28;1641;-68
2024/02/19 00:23:41;;;;;;;;;;;;;;;19.29;49.37;101046.91;2067574;28;1652;-69
2024/02/19 00:24:42;;;;;;;;;;;;;;;19.28;49.28;101046.16;2069097;28;1985;-69
2024/02/19 00:25:44;;;;;;;;;;;;;;;19.29;49.32;101049.75;2067076;28;2025;-69
2024/02/19 00:26:46;;;;;;;;;;;;;;;19.29;49.31;101052.63;2067641;28;1593;-68
2024/02/19 00:27:47;;;;;;;;;;;;;;;19.28;49.32;101039.69;2066708;28;1798;-68
2024/02/19 00:28:49;;;;;;;;;;;;;;;19.29;49.25;101044.03;2068010;28;1696;-69
2024/02/19 00:29:50;;;;;;;;;;;;;;;19.28;49.37;101039.69;2070339;28;2073;-68
2024/02/19 00:30:52;;;;;;;;;;;;;;;19.28;49.36;101040.41;2070004;28;6888;-69
2024/02/19 00:31:53;;;;;;;;;;;;;;;19.28;49.36;101040.41;2070563;28;1799;-68
2024/02/19 00:32:54;;;;;;;;;;;;;;;19.27;49.24;101035.31;2072857;28;1628;-69
2024/02/19 00:33:56;;;;;;;;;;;;;;;19.28;49.20;101033.94;2071495;28;2218;-69
2024/02/19 00:34:57;;;;;;;;;;;;;;;19.25;49.32;101036.69;2069062;28;1757;-68
2024/02/19 00:35:59;;;;;;;;;;;;;;;19.26;49.35;101031.69;2069844;28;2473;-68
2024/02/19 00:37:00;;;;;;;;;;;;;;;19.27;49.21;101026.72;2067920;28;1914;-69
2024/02/19 00:38:01;;;;;;;;;;;;;;;19.27;49.31;101029.59;2072296;28;1756;-69
2024/02/19 00:39:03;;;;;;;;;;;;;;;19.25;49.21;101022.34;2071318;28;1949;-69
2024/02/19 00:40:04;;;;;;;;;;;;;;;19.26;49.32;101025.94;2068531;28;2374;-69
2024/02/19 00:41:06;;;;;;;;;;;;;;;19.25;49.28;101019.47;2070085;28;1720;-68
2024/02/19 00:42:07;;;;;;;;;;;;;;;19.26;49.22;101025.94;2068189;28;1937;-69
2024/02/19 00:43:09;;;;;;;;;;;;;;;19.25;49.37;101018.72;2070686;28;1700;-68
2024/02/19 00:44:10;;;;;;;;;;;;;;;19.25;49.30;101019.47;2072047;28;1919;-69
2024/02/19 00:45:13;;;;;;;;;;;;;;;19.25;49.36;101022.34;2066898;28;1629;-68
2024/02/19 00:46:14;;;;;;;;;;;;;;;19.25;49.25;101018.72;2072841;28;1680;-69
2024/02/19 00:47:16;;;;;;;;;;;;;;;19.24;49.21;101015.13;2068480;28;2006;-69
2024/02/19 00:48:17;;;;;;;;;;;;;;;19.24;49.23;101000.75;2069898;28;2145;-69
2024/02/19 00:49:19;;;;;;;;;;;;;;;19.24;49.31;101012.25;2072188;28;1677;-69
2024/02/19 00:50:20;;;;;;;;;;;;;;;19.25;49.24;101012.97;2072674;28;1636;-69
2024/02/19 00:51:21;;;;;;;;;;;;;;;19.24;49.24;101020.88;2068978;28;2017;-68
2024/02/19 00:52:23;;;;;;;;;;;;;;;19.24;49.25;101018.00;2069972;28;1688;-68
2024/02/19 00:53:24;;;;;;;;;;;;;;;19.24;49.25;101012.25;2070019;28;1941;-68
2024/02/19 00:54:26;;;;;;;;;;;;;;;19.24;49.25;101005.75;2070314;28;2329;-69
2024/02/19 00:55:27;;;;;;;;;;;;;;;19.23;49.28;101005.00;2069265;28;2148;-69
2024/02/19 00:56:28;;;;;;;;;;;;;;;19.23;49.28;101005.00;2071057;28;2413;-69
2024/02/19 00:57:30;;;;;;;;;;;;;;;19.23;49.25;101002.13;2067125;28;2085;-69
2024/02/19 00:58:31;;;;;;;;;;;;;;;19.22;49.28;101000.66;2070757;28;2128;-68
2024/02/19 00:59:32;;;;;;;;;;;;;;;19.23;49.27;100999.25;2065887;28;1850;-69
2024/02/19 01:00:34;;;;;;;;;;;;;;;19.21;49.26;100993.41;2069317;28;5994;-69
2024/02/19 01:01:35;;;;;;;;;;;;;;;19.24;49.07;100997.13;2068565;28;1676;-69
2024/02/19 01:02:37;;;;;;;;;;;;;;;19.23;49.22;100996.38;2070743;28;2362;-69
2024/02/19 01:03:38;;;;;;;;;;;;;;;19.23;49.24;100995.66;2069000;28;2225;-69
2024/02/19 01:04:40;;;;;;;;;;;;;;;19.23;49.21;100987.78;2070703;28;1918;-69
2024/02/19 01:05:41;;;;;;;;;;;;;;;19.23;49.21;100987.78;2070931;28;2185;-68
2024/02/19 01:06:43;;;;;;;;;;;;;;;19.23;49.28;100987.78;2069803;28;1693;-69
2024/02/19 01:07:44;;;;;;;;;;;;;;;19.23;49.26;100987.03;2070912;28;1683;-68
2024/02/19 01:08:45;;;;;;;;;;;;;;;19.22;49.19;100980.56;2071144;28;1639;-69
2024/02/19 01:09:48;;;;;;;;;;;;;;;19.21;49.18;100981.19;2071547;28;1604;-68
2024/02/19 01:10:49;;;;;;;;;;;;;;;19.22;49.24;100985.56;2070765;28;1563;-68
2024/02/19 01:11:50;;;;;;;;;;;;;;;19.22;49.18;100985.56;2071391;28;1571;-68
2024/02/19 01:12:52;;;;;;;;;;;;;;;19.23;49.23;100987.78;2069773;28;1640;-69
2024/02/19 01:13:53;;;;;;;;;;;;;;;19.22;49.24;100982.69;2069308;28;2192;-68
2024/02/19 01:14:54;;;;;;;;;;;;;;;19.21;49.13;100972.56;2070670;28;2368;-69
2024/02/19 01:15:56;;;;;;;;;;;;;;;19.20;49.29;100980.44;2069967;28;2326;-68
2024/02/19 01:16:57;;;;;;;;;;;;;;;19.21;49.25;100973.31;2068646;28;1623;-68
2024/02/19 01:17:59;;;;;;;;;;;;;;;19.20;49.25;100977.56;2072416;28;1567;-68
2024/02/19 01:19:00;;;;;;;;;;;;;;;19.21;49.30;100981.91;2072701;28;1535;-68
2024/02/19 01:20:02;;;;;;;;;;;;;;;19.20;49.19;100977.56;2070242;28;1591;-69
2024/02/19 01:21:03;;;;;;;;;;;;;;;19.20;49.22;100977.56;2071927;28;1710;-69
2024/02/19 01:22:05;;;;;;;;;;;;;;;19.20;49.26;100971.09;2070136;28;1631;-69
2024/02/19 01:23:06;;;;;;;;;;;;;;;19.19;49.23;100976.06;2071967;28;1753;-69
2024/02/19 01:24:08;;;;;;;;;;;;;;;19.20;49.17;100979.72;2071151;28;1770;-68
2024/02/19 01:25:10;;;;;;;;;;;;;;;19.20;49.14;100977.56;2066946;28;2230;-68
2024/02/19 01:26:11;;;;;;;;;;;;;;;19.19;49.23;100973.19;2066931;28;2221;-68
2024/02/19 01:27:12;;;;;;;;;;;;;;;19.19;49.14;100970.31;2067608;28;1571;-69
2024/02/19 01:28:14;;;;;;;;;;;;;;;19.19;49.21;100972.47;2069926;28;2128;-69
2024/02/19 01:29:16;;;;;;;;;;;;;;;19.19;49.18;100964.59;2069862;28;1644;-68
2024/02/19 01:30:17;;;;;;;;;;;;;;;19.18;49.17;100963.13;2071268;28;6165;-69
2024/02/19 01:31:18;;;;;;;;;;;;;;;19.19;49.13;100963.84;2069141;28;1616;-68
2024/02/19 01:32:20;;;;;;;;;;;;;;;19.18;49.09;100957.38;2068448;28;2256;-68
2024/02/19 01:33:22;;;;;;;;;;;;;;;19.18;49.17;100956.63;2070382;28;1860;-69
2024/02/19 01:34:23;;;;;;;;;;;;;;;19.19;49.09;100953.09;2070069;28;1747;-68
2024/02/19 01:35:25;;;;;;;;;;;;;;;19.17;49.08;100955.91;2069745;28;1701;-68
2024/02/19 01:36:26;;;;;;;;;;;;;;;19.18;49.15;100957.38;2069535;28;2271;-69
2024/02/19 01:37:28;;;;;;;;;;;;;;;19.17;49.09;100950.16;2069876;28;1632;-68
2024/02/19 01:38:29;;;;;;;;;;;;;;;19.18;49.12;100956.63;2069599;28;1784;-68
2024/02/19 01:39:30;;;;;;;;;;;;;;;19.17;49.09;100955.91;2069188;28;1664;-69
2024/02/19 01:40:32;;;;;;;;;;;;;;;19.16;49.19;100954.38;2069018;28;1930;-69
2024/02/19 01:41:33;;;;;;;;;;;;;;;19.17;49.09;100955.13;2069364;28;1867;-68
2024/02/19 01:42:35;;;;;;;;;;;;;;;19.17;49.05;100950.16;2070302;28;1657;-68
2024/02/19 01:43:36;;;;;;;;;;;;;;;19.17;49.09;100955.13;2069034;28;2169;-68
2024/02/19 01:44:38;;;;;;;;;;;;;;;19.16;49.12;100956.53;2066653;28;1847;-69
2024/02/19 01:45:39;;;;;;;;;;;;;;;19.16;49.12;100950.78;2071833;28;2236;-69
2024/02/19 01:46:42;;;;;;;;;;;;;;;19.16;49.19;100954.38;2070113;28;2049;-68
2024/02/19 01:47:43;;;;;;;;;;;;;;;19.17;49.10;100949.38;2067194;28;2372;-69
2024/02/19 01:48:45;;;;;;;;;;;;;;;19.16;48.99;100948.66;2067255;28;1775;-68
2024/02/19 01:49:46;;;;;;;;;;;;;;;19.16;49.13;100948.66;2067076;28;1796;-68
2024/02/19 01:50:48;;;;;;;;;;;;;;;19.16;49.13;100942.16;2070155;28;2145;-68
2024/02/19 01:51:50;;;;;;;;;;;;;;;19.16;49.18;100942.16;2068167;28;2318;-69
2024/02/19 01:52:52;;;;;;;;;;;;;;;19.15;49.04;100947.16;2067746;28;2228;-69
2024/02/19 01:53:54;;;;;;;;;;;;;;;19.17;49.03;100940.78;2070408;28;1842;-69
2024/02/19 01:54:56;;;;;;;;;;;;;;;19.15;49.13;100947.16;2070135;28;2229;-69
2024/02/19 01:55:58;;;;;;;;;;;;;;;19.15;49.07;100929.94;2069197;28;2251;-68
2024/02/19 01:56:59;;;;;;;;;;;;;;;19.15;49.08;100941.44;2072255;28;2331;-68
2024/02/19 01:58:01;;;;;;;;;;;;;;;19.14;49.22;100934.19;2066497;28;2240;-69
2024/02/19 01:59:04;;;;;;;;;;;;;;;19.15;49.14;100940.66;2070309;28;1739;-69
2024/02/19 02:00:08;;;;;;;;;;;;;;;19.14;49.14;100939.94;2070539;28;6193;-68
2024/02/19 02:01:11;;;;;;;;;;;;;;;19.14;49.07;100939.19;2070572;28;1621;-69
2024/02/19 02:02:12;;;;;;;;;;;;;;;19.13;49.08;100932.72;2069605;28;1641;-68
2024/02/19 02:03:15;;;;;;;;;;;;;;;19.14;49.15;100944.94;2067000;28;1716;-69
2024/02/19 02:04:17;;;;;;;;;;;;;;;19.13;49.14;100938.44;2068816;28;1724;-68
2024/02/19 02:05:18;;;;;;;;;;;;;;;19.13;49.04;100937.72;2070106;28;2371;-68
2024/02/19 02:06:22;;;;;;;;;;;;;;;19.12;49.19;100933.34;2070516;28;1866;-69
2024/02/19 02:07:24;;;;;;;;;;;;;;;19.12;49.22;100931.22;2066872;28;1620;-69
2024/02/19 02:08:26;;;;;;;;;;;;;;;19.12;49.16;100931.22;2069772;28;2351;-68
2024/02/19 02:09:28;;;;;;;;;;;;;;;19.12;49.15;100931.22;2070622;28;1613;-69
2024/02/19 02:10:29;;;;;;;;;;;;;;;19.11;49.11;100935.47;2068892;28;1648;-68
2024/02/19 02:11:31;;;;;;;;;;;;;;;19.12;49.07;100936.94;2070717;28;1648;-68
2024/02/19 02:12:32;;;;;;;;;;;;;;;19.13;49.05;100934.84;2069995;28;1844;-68
2024/02/19 02:13:34;;;;;;;;;;;;;;;19.12;49.09;100936.94;2068683;28;1653;-68
2024/02/19 02:14:36;;;;;;;;;;;;;;;19.12;49.15;100931.22;2069729;28;1760;-69
2024/02/19 02:15:37;;;;;;;;;;;;;;;19.12;49.17;100927.59;2070132;28;2256;-68
2024/02/19 02:16:39;;;;;;;;;;;;;;;19.11;49.18;100926.84;2069201;28;1629;-69
2024/02/19 02:17:43;;;;;;;;;;;;;;;19.11;49.15;100926.84;2070139;28;1618;-68
2024/02/19 02:18:45;;;;;;;;;;;;;;;19.12;49.21;100930.47;2066935;28;1699;-68
2024/02/19 02:19:47;;;;;;;;;;;;;;;19.11;49.13;100926.84;2071176;28;1617;-68
2024/02/19 02:20:48;;;;;;;;;;;;;;;19.11;49.09;100924.00;2071206;28;1787;-68
2024/02/19 02:21:50;;;;;;;;;;;;;;;19.11;49.14;100923.25;2071571;28;1961;-68
2024/02/19 02:22:51;;;;;;;;;;;;;;;19.10;49.11;100924.63;2067819;28;1941;-68
2024/02/19 02:23:53;;;;;;;;;;;;;;;19.11;49.25;100924.00;2069999;28;1629;-68
2024/02/19 02:24:55;;;;;;;;;;;;;;;19.10;49.16;100916.75;2068145;28;1674;-68
2024/02/19 02:25:56;;;;;;;;;;;;;;;19.10;49.21;100924.63;2068772;28;2049;-68
2024/02/19 02:26:57;;;;;;;;;;;;;;;19.10;49.13;100916.75;2067083;28;1597;-68
2024/02/19 02:27:59;;;;;;;;;;;;;;;19.06;49.15;100916.56;2067937;28;1764;-68
2024/02/19 02:29:00;;;;;;;;;;;;;;;19.09;49.06;100915.28;2067405;28;1614;-67
2024/02/19 02:30:03;;;;;;;;;;;;;;;19.09;49.20;100915.28;2068326;28;6184;-68
2024/02/19 02:31:05;;;;;;;;;;;;;;;19.09;49.09;100912.41;2070344;28;1743;-68
2024/02/19 02:32:06;;;;;;;;;;;;;;;19.10;49.11;100913.88;2067988;28;1976;-68
2024/02/19 02:33:08;;;;;;;;;;;;;;;19.10;49.11;100913.13;2071651;28;1749;-68
2024/02/19 02:34:09;;;;;;;;;;;;;;;19.09;49.16;100903.78;2070227;28;2336;-68
2024/02/19 02:35:11;;;;;;;;;;;;;;;19.09;49.11;100912.41;2068292;28;2312;-68
2024/02/19 02:36:13;;;;;;;;;;;;;;;19.08;49.21;100908.06;2069073;28;2240;-68
2024/02/19 02:37:14;;;;;;;;;;;;;;;19.08;49.19;100908.06;2070689;28;2203;-68
2024/02/19 02:38:16;;;;;;;;;;;;;;;19.08;49.14;100910.94;2070547;28;2260;-68
2024/02/19 02:39:17;;;;;;;;;;;;;;;19.08;49.21;100908.06;2068842;28;2121;-68
2024/02/19 02:40:18;;;;;;;;;;;;;;;19.08;49.06;100908.06;2071220;28;2546;-68
2024/02/19 02:41:20;;;;;;;;;;;;;;;19.08;49.14;100907.28;2069388;28;1701;-68
2024/02/19 02:42:22;;;;;;;;;;;;;;;19.07;49.08;100906.56;2065671;28;1703;-68
2024/02/19 02:43:23;;;;;;;;;;;;;;;19.09;49.14;100903.06;2067682;28;2064;-68
2024/02/19 02:44:25;;;;;;;;;;;;;;;19.07;49.09;100905.81;2070354;28;1959;-68
2024/02/19 02:45:26;;;;;;;;;;;;;;;19.07;49.09;100906.56;2065840;28;2281;-68
2024/02/19 02:46:27;;;;;;;;;;;;;;;19.08;49.15;100908.06;2072077;28;2011;-68
2024/02/19 02:47:29;;;;;;;;;;;;;;;19.07;49.16;100906.56;2069645;28;2185;-68
2024/02/19 02:48:30;;;;;;;;;;;;;;;19.06;49.12;100902.19;2069019;28;2745;-68
2024/02/19 02:49:32;;;;;;;;;;;;;;;19.07;49.16;100912.28;2066969;28;1892;-68
2024/02/19 02:50:33;;;;;;;;;;;;;;;19.07;49.15;100906.56;2070365;28;1732;-68
2024/02/19 02:51:34;;;;;;;;;;;;;;;19.07;49.09;100897.94;2070591;28;1963;-68
2024/02/19 02:52:36;;;;;;;;;;;;;;;19.07;49.09;100889.31;2067403;28;1993;-68
2024/02/19 02:53:37;;;;;;;;;;;;;;;19.07;49.17;100902.94;2072017;28;1747;-68
2024/02/19 02:54:38;;;;;;;;;;;;;;;19.07;49.16;100905.81;2068148;28;2007;-68
2024/02/19 02:55:42;;;;;;;;;;;;;;;19.07;49.17;100903.69;2071224;28;1768;-68
2024/02/19 02:56:43;;;;;;;;;;;;;;;19.06;49.09;100899.34;2066864;28;1833;-67
2024/02/19 02:57:44;;;;;;;;;;;;;;;19.05;49.19;100897.84;2065931;28;2263;-68
2024/02/19 02:58:46;;;;;;;;;;;;;;;19.04;49.18;100884.88;2070035;28;1750;-68
2024/02/19 02:59:48;;;;;;;;;;;;;;;19.05;49.13;100897.84;2070965;28;1705;-68
2024/02/19 03:00:49;;;;;;;;;;;;;;;19.05;49.21;100897.84;2070334;28;6081;-68
2024/02/19 03:01:51;;;;;;;;;;;;;;;19.04;49.09;100896.34;2069664;28;1776;-68
2024/02/19 03:02:52;;;;;;;;;;;;;;;19.06;49.19;100890.72;2071157;28;1729;-68
2024/02/19 03:03:54;;;;;;;;;;;;;;;19.05;49.18;100897.84;2069508;28;2237;-68
2024/02/19 03:04:55;;;;;;;;;;;;;;;19.05;49.13;100892.81;2067402;28;1720;-67
2024/02/19 03:05:57;;;;;;;;;;;;;;;19.04;49.14;100890.63;2070833;28;1973;-68
2024/02/19 03:06:58;;;;;;;;;;;;;;;19.04;49.14;100887.75;2068488;28;2056;-68
2024/02/19 03:08:00;;;;;;;;;;;;;;;19.04;49.21;100884.88;2070701;28;1694;-68
2024/02/19 03:09:01;;;;;;;;;;;;;;;19.04;49.20;100887.75;2069810;28;1780;-68
2024/02/19 03:10:03;;;;;;;;;;;;;;;19.04;49.23;100893.47;2068742;28;1829;-68
2024/02/19 03:11:05;;;;;;;;;;;;;;;19.04;49.14;100894.22;2069741;28;2011;-68
2024/02/19 03:12:06;;;;;;;;;;;;;;;19.03;49.20;100883.38;2071691;28;1766;-67
2024/02/19 03:13:08;;;;;;;;;;;;;;;19.03;49.21;100894.84;2068883;28;1717;-68
2024/02/19 03:14:13;;;;;;;;;;;;;;;19.02;49.11;100888.38;2069006;28;1796;-68
2024/02/19 03:15:15;;;;;;;;;;;;;;;19.03;49.18;100889.09;2067116;28;1904;-68
2024/02/19 03:16:17;;;;;;;;;;;;;;;19.03;49.15;100883.38;2069198;28;1744;-67
2024/02/19 03:17:19;;;;;;;;;;;;;;;19.03;49.18;100883.38;2070325;28;2019;-68
2024/02/19 03:18:20;;;;;;;;;;;;;;;19.02;49.24;100876.91;2070800;28;2031;-68
2024/02/19 03:19:22;;;;;;;;;;;;;;;19.03;49.09;100883.38;2069164;28;1689;-68
2024/02/19 03:20:23;;;;;;;;;;;;;;;19.03;49.17;100889.09;2067531;28;1788;-68
2024/02/19 03:21:25;;;;;;;;;;;;;;;19.03;49.14;100877.63;2068257;28;2361;-68
2024/02/19 03:22:26;;;;;;;;;;;;;;;19.03;49.17;100886.25;2069807;28;1667;-68
2024/02/19 03:23:28;;;;;;;;;;;;;;;19.02;49.18;100884.75;2067007;28;1891;-68
2024/02/19 03:24:29;;;;;;;;;;;;;;;19.03;49.18;100877.63;2067333;28;1712;-68
2024/02/19 03:25:31;;;;;;;;;;;;;;;19.01;49.22;100871.78;2067578;28;1640;-67
2024/02/19 03:26:32;;;;;;;;;;;;;;;19.02;49.14;100876.16;2070257;28;1915;-68
2024/02/19 03:27:41;;;;;;;;;;;;;;;19.02;49.16;100879.03;2067417;28;1693;-68
2024/02/19 03:28:43;;;;;;;;;;;;;;;19.01;49.08;100880.41;2065649;28;2185;-68
2024/02/19 03:29:44;;;;;;;;;;;;;;;19.01;49.10;100881.16;2067528;28;1625;-68
2024/02/19 03:30:46;;;;;;;;;;;;;;;19.01;49.21;100880.41;2069977;28;6334;-68
2024/02/19 03:31:47;;;;;;;;;;;;;;;19.02;49.18;100887.63;2067247;28;1957;-68
2024/02/19 03:32:49;;;;;;;;;;;;;;;19.02;49.21;100881.91;2067923;28;1642;-68
2024/02/19 03:33:50;;;;;;;;;;;;;;;19.01;49.14;100891.88;2068897;28;1627;-66
2024/02/19 03:34:52;;;;;;;;;;;;;;;19.00;49.17;100887.53;2068011;28;1635;-68
2024/02/19 03:35:53;;;;;;;;;;;;;;;19.02;49.15;100881.91;2068968;28;1641;-68
2024/02/19 03:36:55;;;;;;;;;;;;;;;19.01;49.18;100883.25;2069125;28;1831;-68
2024/02/19 03:37:56;;;;;;;;;;;;;;;19.01;49.16;100889.78;2067506;28;1681;-68
2024/02/19 03:38:57;;;;;;;;;;;;;;;19.01;49.08;100891.88;2070524;28;1716;-68
2024/02/19 03:39:59;;;;;;;;;;;;;;;19.01;49.22;100891.88;2068086;28;1914;-68
2024/02/19 03:41:00;;;;;;;;;;;;;;;19.01;49.15;100891.88;2066907;28;1668;-68
2024/02/19 03:42:02;;;;;;;;;;;;;;;19.02;49.17;100890.50;2069079;28;2216;-68
2024/02/19 03:43:04;;;;;;;;;;;;;;;19.03;49.12;100889.88;2066547;28;1680;-68
2024/02/19 03:44:05;;;;;;;;;;;;;;;19.02;49.06;100876.91;2068591;28;1899;-68
2024/02/19 03:45:06;;;;;;;;;;;;;;;19.06;48.99;100890.72;2068633;28;1914;-68
2024/02/19 03:46:08;;;;;;;;;;;;;;;19.07;49.06;100897.94;2065281;28;1900;-67
2024/02/19 03:47:10;;;;;;;;;;;;;;;19.08;48.95;100884.31;2068108;28;1704;-68
2024/02/19 03:48:11;;;;;;;;;;;;;;;19.08;48.89;100879.34;2068138;28;2142;-68
2024/02/19 03:49:13;;;;;;;;;;;;;;;19.10;48.97;100890.19;2070443;28;2151;-68
2024/02/19 03:50:14;;;;;;;;;;;;;;;19.10;48.87;100893.03;2067001;28;2093;-68
2024/02/19 03:51:16;;;;;;;;;;;;;;;19.10;48.85;100890.91;2069839;28;1918;-69
2024/02/19 03:52:19;;;;;;;;;;;;;;;19.12;48.86;100891.03;2067649;28;1779;-68
2024/02/19 03:53:20;;;;;;;;;;;;;;;19.12;48.76;100896.75;2067049;28;2060;-68
2024/02/19 03:54:22;;;;;;;;;;;;;;;19.13;48.79;100898.25;2070425;28;1740;-68
2024/02/19 03:55:23;;;;;;;;;;;;;;;19.14;48.81;100896.88;2070672;28;1665;-68
2024/02/19 03:56:25;;;;;;;;;;;;;;;19.15;48.70;100906.22;2070110;28;1587;-68
2024/02/19 03:57:27;;;;;;;;;;;;;;;19.16;48.74;100899.84;2070591;28;1851;-68
2024/02/19 03:58:28;;;;;;;;;;;;;;;19.17;48.83;100903.47;2070440;28;1609;-68
2024/02/19 03:59:31;;;;;;;;;;;;;;;19.16;48.73;100905.59;2067998;28;2229;-68
2024/02/19 04:00:33;;;;;;;;;;;;;;;19.17;48.70;100909.19;2068777;28;7112;-67
2024/02/19 04:01:37;;;;;;;;;;;;;;;19.16;48.76;100905.59;2069461;28;1631;-68
2024/02/19 04:02:40;;;;;;;;;;;;;;;19.17;48.69;100903.47;2066389;28;1593;-68
2024/02/19 04:03:41;;;;;;;;;;;;;;;19.18;48.63;100916.44;2070413;28;2095;-69
2024/02/19 04:04:43;;;;;;;;;;;;;;;19.17;48.83;100909.97;2071448;28;1628;-68
2024/02/19 04:05:44;;;;;;;;;;;;;;;19.16;48.82;100914.19;2069872;28;1688;-68
2024/02/19 04:06:46;;;;;;;;;;;;;;;19.17;48.86;100921.44;2070278;28;2045;-68
2024/02/19 04:07:47;;;;;;;;;;;;;;;19.16;48.81;100914.19;2071453;28;1577;-68
2024/02/19 04:08:48;;;;;;;;;;;;;;;19.17;48.88;100921.44;2069028;28;1759;-68
2024/02/19 04:09:50;;;;;;;;;;;;;;;19.16;48.90;100919.94;2071702;28;1645;-67
2024/02/19 04:10:51;;;;;;;;;;;;;;;19.18;48.88;100927.94;2071246;28;1707;-68
2024/02/19 04:11:52;;;;;;;;;;;;;;;19.18;48.85;100925.78;2071919;28;1777;-68
2024/02/19 04:12:54;;;;;;;;;;;;;;;19.17;48.85;100927.19;2068424;28;1667;-68
2024/02/19 04:13:55;;;;;;;;;;;;;;;19.19;49.01;100924.41;2071412;28;2191;-68
2024/02/19 04:14:57;;;;;;;;;;;;;;;19.19;48.80;100933.00;2071088;28;2213;-69
2024/02/19 04:15:58;;;;;;;;;;;;;;;19.20;48.81;100936.66;2068789;28;2096;-68
2024/02/19 04:17:00;;;;;;;;;;;;;;;19.20;48.85;100933.78;2068893;28;2093;-68
2024/02/19 04:18:04;;;;;;;;;;;;;;;19.19;48.90;100933.00;2070428;28;2041;-68
2024/02/19 04:19:05;;;;;;;;;;;;;;;19.21;48.84;100944.59;2066498;28;1941;-68
2024/02/19 04:20:07;;;;;;;;;;;;;;;19.21;48.89;100930.25;2071790;28;1711;-68
2024/02/19 04:21:09;;;;;;;;;;;;;;;19.22;49.00;100934.63;2070994;28;1783;-68
2024/02/19 04:22:10;;;;;;;;;;;;;;;19.22;49.08;100940.38;2071992;28;2101;-68
2024/02/19 04:23:11;;;;;;;;;;;;;;;19.23;49.03;100941.09;2068551;28;2131;-68
2024/02/19 04:24:13;;;;;;;;;;;;;;;19.22;49.04;100946.09;2071045;28;1649;-68
2024/02/19 04:25:14;;;;;;;;;;;;;;;19.24;49.02;100940.47;2069349;28;2114;-68
2024/02/19 04:26:16;;;;;;;;;;;;;;;19.24;49.00;100954.81;2071747;28;1855;-68
2024/02/19 04:27:20;;;;;;;;;;;;;;;19.25;48.94;100949.81;2069170;28;1914;-68
2024/02/19 04:28:22;;;;;;;;;;;;;;;19.24;49.09;100949.09;2069256;28;1779;-68
2024/02/19 04:29:24;;;;;;;;;;;;;;;19.24;49.16;100954.81;2069451;28;1941;-68
2024/02/19 04:30:25;;;;;;;;;;;;;;;19.24;49.13;100957.69;2069050;28;6292;-68
2024/02/19 04:31:26;;;;;;;;;;;;;;;19.24;49.09;100957.69;2069297;28;1573;-68
2024/02/19 04:32:28;;;;;;;;;;;;;;;19.24;49.18;100948.31;2069703;28;1897;-68
2024/02/19 04:33:30;;;;;;;;;;;;;;;19.24;49.20;100954.81;2067611;28;2119;-68
2024/02/19 04:34:32;;;;;;;;;;;;;;;19.24;49.18;100957.69;2069922;28;1870;-69
2024/02/19 04:35:39;;;;;;;;;;;;;;;19.23;49.15;100959.06;2070749;28;2081;-68
2024/02/19 04:36:41;;;;;;;;;;;;;;;19.23;49.19;100961.94;2068136;28;1644;-68
2024/02/19 04:37:42;;;;;;;;;;;;;;;19.24;49.18;100959.81;2071765;28;1742;-68
2024/02/19 04:38:43;;;;;;;;;;;;;;;19.23;49.14;100959.06;2069316;28;1609;-68
2024/02/19 04:39:45;;;;;;;;;;;;;;;19.23;49.10;100959.06;2068061;28;1695;-68
2024/02/19 04:40:46;;;;;;;;;;;;;;;19.23;49.16;100959.06;2069692;28;1600;-68
2024/02/19 04:41:48;;;;;;;;;;;;;;;19.22;49.13;100963.34;2067607;28;1655;-68
2024/02/19 04:42:49;;;;;;;;;;;;;;;19.24;49.12;100962.69;2069702;28;1616;-68
2024/02/19 04:43:50;;;;;;;;;;;;;;;19.23;49.08;100970.56;2070778;28;2267;-67
2024/02/19 04:44:52;;;;;;;;;;;;;;;19.24;49.14;100974.91;2070276;28;1679;-68
2024/02/19 04:45:53;;;;;;;;;;;;;;;19.24;49.08;100972.06;2071296;28;2111;-68
2024/02/19 04:46:54;;;;;;;;;;;;;;;19.24;49.24;100977.03;2068369;28;1899;-68
2024/02/19 04:47:56;;;;;;;;;;;;;;;19.24;49.06;100983.53;2069785;28;2099;-67
2024/02/19 04:48:57;;;;;;;;;;;;;;;19.24;49.11;100977.78;2072566;28;1670;-68
2024/02/19 04:49:58;;;;;;;;;;;;;;;19.24;49.09;100977.78;2071088;28;1727;-68
2024/02/19 04:51:00;;;;;;;;;;;;;;;19.25;49.05;100978.53;2068752;28;1859;-68
2024/02/19 04:52:02;;;;;;;;;;;;;;;19.27;49.22;100986.53;2068898;28;1649;-68
2024/02/19 04:53:03;;;;;;;;;;;;;;;19.26;49.26;100985.75;2068878;28;1672;-68
2024/02/19 04:54:04;;;;;;;;;;;;;;;19.27;49.46;100990.13;2067860;28;1882;-68
2024/02/19 04:55:06;;;;;;;;;;;;;;;19.27;49.40;100980.78;2071450;28;2049;-68
2024/02/19 04:56:07;;;;;;;;;;;;;;;19.28;49.46;100996.59;2067023;28;1724;-68
2024/02/19 04:57:09;;;;;;;;;;;;;;;19.28;49.49;100985.88;2066802;28;1692;-68
2024/02/19 04:58:10;;;;;;;;;;;;;;;19.29;49.43;100995.22;2070424;28;1926;-68
2024/02/19 04:59:12;;;;;;;;;;;;;;;19.29;49.33;100995.22;2071899;28;1624;-68
2024/02/19 05:00:13;;;;;;;;;;;;;;;19.29;49.45;100995.97;2069414;28;6102;-67
2024/02/19 05:01:14;;;;;;;;;;;;;;;19.29;49.48;100995.22;2067472;28;2159;-67
2024/02/19 05:02:16;;;;;;;;;;;;;;;19.29;49.34;100998.09;2067494;28;1878;-68
2024/02/19 05:03:18;;;;;;;;;;;;;;;19.30;49.47;101002.47;2068574;28;1660;-68
2024/02/19 05:04:19;;;;;;;;;;;;;;;19.30;49.51;101002.47;2069200;28;2145;-68
2024/02/19 05:05:20;;;;;;;;;;;;;;;19.29;49.57;101003.81;2070072;28;2236;-68
2024/02/19 05:06:22;;;;;;;;;;;;;;;19.29;49.48;101003.81;2071597;28;2489;-68
2024/02/19 05:07:24;;;;;;;;;;;;;;;19.28;49.41;101014.56;2071393;28;2148;-68
2024/02/19 05:08:26;;;;;;;;;;;;;;;19.28;49.34;101008.09;2070316;28;1862;-68
2024/02/19 05:09:27;;;;;;;;;;;;;;;19.29;49.39;101018.19;2067185;28;1596;-68
2024/02/19 05:10:28;;;;;;;;;;;;;;;19.28;49.37;101008.09;2069416;28;1648;-68
2024/02/19 05:11:30;;;;;;;;;;;;;;;19.29;49.42;101012.44;2066786;28;2129;-68
2024/02/19 05:12:32;;;;;;;;;;;;;;;19.29;49.41;101012.44;2070578;28;2230;-68
2024/02/19 05:13:36;;;;;;;;;;;;;;;19.28;49.46;101011.69;2072737;28;2054;-68
2024/02/19 05:14:38;;;;;;;;;;;;;;;19.29;49.41;101012.44;2069483;28;2065;-68
2024/02/19 05:15:39;;;;;;;;;;;;;;;19.30;49.50;101013.94;2067808;28;1630;-68
2024/02/19 05:16:40;;;;;;;;;;;;;;;19.30;49.40;101022.56;2070529;28;1665;-68
2024/02/19 05:17:42;;;;;;;;;;;;;;;19.29;49.46;101013.22;2067479;28;1655;-68
2024/02/19 05:18:44;;;;;;;;;;;;;;;19.29;49.54;101015.31;2073791;28;1742;-68
2024/02/19 05:19:46;;;;;;;;;;;;;;;19.29;49.58;101018.19;2070412;28;2213;-67
2024/02/19 05:20:48;;;;;;;;;;;;;;;19.30;49.51;101019.69;2070191;28;2428;-68